sensor_id;sensor_type;location;lat;lon;timestamp;P1;durP1;ratioP1;P2;durP2;ratioP2
71303;SDS011;59091;47.446;19.148;2023-01-20T00:00:24;18.23;;;11.52;;
71303;SDS011;59091;47.446;19.148;2023-01-20T00:02:49;17.95;;;11.52;;
71303;SDS011;59091;47.446;19.148;2023-01-20T00:05:15;18.27;;;11.18;;
71303;SDS011;59091;47.446;19.148;2023-01-20T00:07:40;18.05;;;11.32;;
71303;SDS011;59091;47.446;19.148;2023-01-20T00:10:06;15.90;;;10.65;;
71303;SDS011;59091;47.446;19.148;2023-01-20T00:12:32;18.75;;;11.57;;
71303;SDS011;59091;47.446;19.148;2023-01-20T00:14:57;18.00;;;10.85;;
71303;SDS011;59091;47.446;19.148;2023-01-20T00:17:23;18.00;;;10.60;;
71303;SDS011;59091;47.446;19.148;2023-01-20T00:19:48;16.17;;;10.82;;
71303;SDS011;59091;47.446;19.148;2023-01-20T00:22:14;16.45;;;10.50;;
71303;SDS011;59091;47.446;19.148;2023-01-20T00:24:39;16.92;;;10.55;;
71303;SDS011;59091;47.446;19.148;2023-01-20T00:27:04;15.48;;;10.48;;
71303;SDS011;59091;47.446;19.148;2023-01-20T00:29:31;17.70;;;10.50;;
71303;SDS011;59091;47.446;19.148;2023-01-20T00:31:57;18.88;;;11.07;;
71303;SDS011;59091;47.446;19.148;2023-01-20T00:34:22;18.17;;;11.25;;
71303;SDS011;59091;47.446;19.148;2023-01-20T00:36:47;17.90;;;11.10;;
71303;SDS011;59091;47.446;19.148;2023-01-20T00:39:13;22.45;;;11.93;;
71303;SDS011;59091;47.446;19.148;2023-01-20T00:41:38;18.65;;;11.70;;
71303;SDS011;59091;47.446;19.148;2023-01-20T00:44:04;20.27;;;11.40;;
71303;SDS011;59091;47.446;19.148;2023-01-20T00:46:29;19.42;;;11.75;;
71303;SDS011;59091;47.446;19.148;2023-01-20T00:48:55;16.98;;;10.90;;
71303;SDS011;59091;47.446;19.148;2023-01-20T00:51:20;18.92;;;11.88;;
71303;SDS011;59091;47.446;19.148;2023-01-20T00:53:45;19.95;;;12.02;;
71303;SDS011;59091;47.446;19.148;2023-01-20T00:56:11;19.55;;;11.63;;
71303;SDS011;59091;47.446;19.148;2023-01-20T00:58:36;18.35;;;11.00;;
71303;SDS011;59091;47.446;19.148;2023-01-20T01:01:02;19.38;;;11.85;;
71303;SDS011;59091;47.446;19.148;2023-01-20T01:03:28;17.42;;;11.43;;
71303;SDS011;59091;47.446;19.148;2023-01-20T01:05:54;20.55;;;12.85;;
71303;SDS011;59091;47.446;19.148;2023-01-20T01:08:29;19.98;;;11.70;;
71303;SDS011;59091;47.446;19.148;2023-01-20T01:10:54;20.98;;;10.00;;
71303;SDS011;59091;47.446;19.148;2023-01-20T01:13:20;15.60;;;9.88;;
71303;SDS011;59091;47.446;19.148;2023-01-20T01:15:48;19.23;;;10.57;;
71303;SDS011;59091;47.446;19.148;2023-01-20T01:18:14;16.25;;;9.90;;
71303;SDS011;59091;47.446;19.148;2023-01-20T01:20:40;15.07;;;9.63;;
71303;SDS011;59091;47.446;19.148;2023-01-20T01:23:08;17.45;;;10.43;;
71303;SDS011;59091;47.446;19.148;2023-01-20T01:25:35;18.67;;;10.25;;
71303;SDS011;59091;47.446;19.148;2023-01-20T01:28:01;17.45;;;10.13;;
71303;SDS011;59091;47.446;19.148;2023-01-20T01:30:26;19.08;;;10.98;;
71303;SDS011;59091;47.446;19.148;2023-01-20T01:32:52;15.88;;;10.23;;
71303;SDS011;59091;47.446;19.148;2023-01-20T01:35:17;17.35;;;10.95;;
71303;SDS011;59091;47.446;19.148;2023-01-20T01:37:42;17.52;;;10.88;;
71303;SDS011;59091;47.446;19.148;2023-01-20T01:40:08;15.52;;;9.95;;
71303;SDS011;59091;47.446;19.148;2023-01-20T01:42:34;18.13;;;11.40;;
71303;SDS011;59091;47.446;19.148;2023-01-20T01:47:35;16.38;;;10.68;;
71303;SDS011;59091;47.446;19.148;2023-01-20T01:50:06;20.98;;;11.35;;
71303;SDS011;59091;47.446;19.148;2023-01-20T01:52:35;17.65;;;10.50;;
71303;SDS011;59091;47.446;19.148;2023-01-20T01:55:02;17.83;;;10.95;;
71303;SDS011;59091;47.446;19.148;2023-01-20T01:57:29;24.48;;;10.90;;
71303;SDS011;59091;47.446;19.148;2023-01-20T01:59:56;19.65;;;10.98;;
71303;SDS011;59091;47.446;19.148;2023-01-20T02:02:21;22.55;;;11.23;;
71303;SDS011;59091;47.446;19.148;2023-01-20T02:04:47;19.40;;;11.02;;
71303;SDS011;59091;47.446;19.148;2023-01-20T02:07:13;18.55;;;11.30;;
71303;SDS011;59091;47.446;19.148;2023-01-20T02:09:43;21.90;;;11.88;;
71303;SDS011;59091;47.446;19.148;2023-01-20T02:12:10;18.92;;;11.25;;
71303;SDS011;59091;47.446;19.148;2023-01-20T02:14:40;22.45;;;12.73;;
71303;SDS011;59091;47.446;19.148;2023-01-20T02:33:03;18.20;;;10.90;;
71303;SDS011;59091;47.446;19.148;2023-01-20T02:38:46;21.27;;;11.70;;
71303;SDS011;59091;47.446;19.148;2023-01-20T02:47:09;18.17;;;11.02;;
71303;SDS011;59091;47.446;19.148;2023-01-20T02:52:21;19.90;;;11.25;;
71303;SDS011;59091;47.446;19.148;2023-01-20T02:54:51;22.38;;;12.02;;
71303;SDS011;59091;47.446;19.148;2023-01-20T02:57:22;19.20;;;11.07;;
71303;SDS011;59091;47.446;19.148;2023-01-20T02:59:54;18.00;;;10.38;;
71303;SDS011;59091;47.446;19.148;2023-01-20T03:02:24;20.80;;;10.70;;
71303;SDS011;59091;47.446;19.148;2023-01-20T03:04:58;20.17;;;10.48;;
71303;SDS011;59091;47.446;19.148;2023-01-20T03:07:28;19.02;;;11.23;;
71303;SDS011;59091;47.446;19.148;2023-01-20T03:09:57;20.23;;;11.18;;
71303;SDS011;59091;47.446;19.148;2023-01-20T03:12:32;21.27;;;11.18;;
71303;SDS011;59091;47.446;19.148;2023-01-20T03:15:02;19.58;;;11.45;;
71303;SDS011;59091;47.446;19.148;2023-01-20T03:17:28;20.02;;;11.18;;
71303;SDS011;59091;47.446;19.148;2023-01-20T03:19:54;17.58;;;10.32;;
71303;SDS011;59091;47.446;19.148;2023-01-20T03:22:19;18.63;;;10.82;;
71303;SDS011;59091;47.446;19.148;2023-01-20T03:24:45;20.13;;;11.38;;
71303;SDS011;59091;47.446;19.148;2023-01-20T03:27:12;18.88;;;11.05;;
71303;SDS011;59091;47.446;19.148;2023-01-20T03:29:38;16.88;;;10.68;;
71303;SDS011;59091;47.446;19.148;2023-01-20T03:32:03;19.98;;;11.32;;
71303;SDS011;59091;47.446;19.148;2023-01-20T03:34:33;18.88;;;10.52;;
71303;SDS011;59091;47.446;19.148;2023-01-20T03:37:01;16.92;;;10.15;;
71303;SDS011;59091;47.446;19.148;2023-01-20T03:39:28;19.17;;;10.82;;
71303;SDS011;59091;47.446;19.148;2023-01-20T03:42:04;19.45;;;10.75;;
71303;SDS011;59091;47.446;19.148;2023-01-20T03:52:54;18.27;;;11.35;;
71303;SDS011;59091;47.446;19.148;2023-01-20T03:55:27;22.85;;;12.60;;
71303;SDS011;59091;47.446;19.148;2023-01-20T03:57:59;19.80;;;11.50;;
71303;SDS011;59091;47.446;19.148;2023-01-20T04:00:33;25.00;;;11.75;;
71303;SDS011;59091;47.446;19.148;2023-01-20T04:03:02;23.75;;;12.20;;
71303;SDS011;59091;47.446;19.148;2023-01-20T04:05:36;20.10;;;12.13;;
71303;SDS011;59091;47.446;19.148;2023-01-20T04:08:05;22.25;;;11.85;;
71303;SDS011;59091;47.446;19.148;2023-01-20T04:10:32;21.02;;;11.77;;
71303;SDS011;59091;47.446;19.148;2023-01-20T04:13:02;17.75;;;11.45;;
71303;SDS011;59091;47.446;19.148;2023-01-20T04:15:28;22.13;;;12.23;;
71303;SDS011;59091;47.446;19.148;2023-01-20T04:18:08;18.48;;;10.48;;
71303;SDS011;59091;47.446;19.148;2023-01-20T04:21:05;16.95;;;10.48;;
71303;SDS011;59091;47.446;19.148;2023-01-20T04:23:31;13.23;;;9.10;;
71303;SDS011;59091;47.446;19.148;2023-01-20T04:26:00;16.17;;;10.43;;
71303;SDS011;59091;47.446;19.148;2023-01-20T04:28:26;19.77;;;10.50;;
71303;SDS011;59091;47.446;19.148;2023-01-20T04:30:51;18.42;;;10.70;;
71303;SDS011;59091;47.446;19.148;2023-01-20T04:33:17;16.08;;;10.10;;
71303;SDS011;59091;47.446;19.148;2023-01-20T04:35:42;18.33;;;9.68;;
71303;SDS011;59091;47.446;19.148;2023-01-20T04:38:08;16.75;;;9.93;;
71303;SDS011;59091;47.446;19.148;2023-01-20T04:40:33;15.18;;;9.60;;
71303;SDS011;59091;47.446;19.148;2023-01-20T04:42:59;15.82;;;10.18;;
71303;SDS011;59091;47.446;19.148;2023-01-20T04:45:24;19.65;;;9.88;;
71303;SDS011;59091;47.446;19.148;2023-01-20T04:47:50;16.88;;;10.10;;
71303;SDS011;59091;47.446;19.148;2023-01-20T04:50:15;15.85;;;9.93;;
71303;SDS011;59091;47.446;19.148;2023-01-20T04:52:41;15.98;;;9.88;;
71303;SDS011;59091;47.446;19.148;2023-01-20T04:55:08;14.57;;;8.95;;
71303;SDS011;59091;47.446;19.148;2023-01-20T04:57:33;16.58;;;10.02;;
71303;SDS011;59091;47.446;19.148;2023-01-20T04:59:59;15.60;;;9.35;;
71303;SDS011;59091;47.446;19.148;2023-01-20T05:02:24;16.45;;;9.63;;
71303;SDS011;59091;47.446;19.148;2023-01-20T05:04:50;20.63;;;10.15;;
71303;SDS011;59091;47.446;19.148;2023-01-20T05:07:15;19.77;;;10.77;;
71303;SDS011;59091;47.446;19.148;2023-01-20T05:09:40;16.77;;;10.55;;
71303;SDS011;59091;47.446;19.148;2023-01-20T05:12:06;22.65;;;10.68;;
71303;SDS011;59091;47.446;19.148;2023-01-20T05:14:31;17.75;;;10.20;;
71303;SDS011;59091;47.446;19.148;2023-01-20T05:16:57;18.77;;;10.43;;
71303;SDS011;59091;47.446;19.148;2023-01-20T05:19:22;16.00;;;9.90;;
71303;SDS011;59091;47.446;19.148;2023-01-20T05:21:48;19.75;;;10.88;;
71303;SDS011;59091;47.446;19.148;2023-01-20T05:24:13;16.67;;;10.50;;
71303;SDS011;59091;47.446;19.148;2023-01-20T05:26:39;15.82;;;10.02;;
71303;SDS011;59091;47.446;19.148;2023-01-20T05:29:04;19.05;;;10.27;;
71303;SDS011;59091;47.446;19.148;2023-01-20T05:31:30;15.65;;;9.85;;
71303;SDS011;59091;47.446;19.148;2023-01-20T05:33:55;21.48;;;10.48;;
71303;SDS011;59091;47.446;19.148;2023-01-20T05:36:21;16.02;;;9.38;;
71303;SDS011;59091;47.446;19.148;2023-01-20T05:38:46;18.92;;;10.25;;
71303;SDS011;59091;47.446;19.148;2023-01-20T05:41:12;17.75;;;9.32;;
71303;SDS011;59091;47.446;19.148;2023-01-20T05:43:37;16.05;;;9.65;;
71303;SDS011;59091;47.446;19.148;2023-01-20T05:46:03;20.20;;;10.80;;
71303;SDS011;59091;47.446;19.148;2023-01-20T05:48:29;17.48;;;10.30;;
71303;SDS011;59091;47.446;19.148;2023-01-20T05:50:54;18.60;;;10.40;;
71303;SDS011;59091;47.446;19.148;2023-01-20T05:53:20;20.52;;;11.15;;
71303;SDS011;59091;47.446;19.148;2023-01-20T05:55:45;18.92;;;10.27;;
71303;SDS011;59091;47.446;19.148;2023-01-20T05:58:11;18.95;;;10.80;;
71303;SDS011;59091;47.446;19.148;2023-01-20T06:00:36;25.80;;;11.90;;
71303;SDS011;59091;47.446;19.148;2023-01-20T06:03:02;18.50;;;11.40;;
71303;SDS011;59091;47.446;19.148;2023-01-20T06:05:28;17.45;;;10.48;;
71303;SDS011;59091;47.446;19.148;2023-01-20T06:07:54;21.13;;;11.00;;
71303;SDS011;59091;47.446;19.148;2023-01-20T06:10:20;17.17;;;10.05;;
71303;SDS011;59091;47.446;19.148;2023-01-20T06:12:52;19.05;;;10.38;;
71303;SDS011;59091;47.446;19.148;2023-01-20T06:15:21;20.90;;;10.48;;
71303;SDS011;59091;47.446;19.148;2023-01-20T06:17:50;18.52;;;10.27;;
71303;SDS011;59091;47.446;19.148;2023-01-20T06:20:16;15.65;;;9.27;;
71303;SDS011;59091;47.446;19.148;2023-01-20T06:22:42;19.15;;;10.82;;
71303;SDS011;59091;47.446;19.148;2023-01-20T06:25:08;21.05;;;11.20;;
71303;SDS011;59091;47.446;19.148;2023-01-20T06:27:33;18.77;;;11.35;;
71303;SDS011;59091;47.446;19.148;2023-01-20T06:29:59;19.40;;;11.10;;
71303;SDS011;59091;47.446;19.148;2023-01-20T06:32:24;20.92;;;11.70;;
71303;SDS011;59091;47.446;19.148;2023-01-20T06:34:50;19.95;;;10.60;;
71303;SDS011;59091;47.446;19.148;2023-01-20T06:37:17;19.92;;;10.60;;
71303;SDS011;59091;47.446;19.148;2023-01-20T06:39:42;18.90;;;11.27;;
71303;SDS011;59091;47.446;19.148;2023-01-20T06:42:08;17.75;;;10.60;;
71303;SDS011;59091;47.446;19.148;2023-01-20T06:44:33;16.73;;;9.93;;
71303;SDS011;59091;47.446;19.148;2023-01-20T06:46:59;19.50;;;10.35;;
71303;SDS011;59091;47.446;19.148;2023-01-20T06:49:24;20.42;;;11.27;;
71303;SDS011;59091;47.446;19.148;2023-01-20T06:51:50;16.65;;;10.32;;
71303;SDS011;59091;47.446;19.148;2023-01-20T06:54:16;20.33;;;10.55;;
71303;SDS011;59091;47.446;19.148;2023-01-20T06:56:41;19.00;;;10.77;;
71303;SDS011;59091;47.446;19.148;2023-01-20T06:59:08;17.67;;;10.40;;
71303;SDS011;59091;47.446;19.148;2023-01-20T07:01:34;21.20;;;10.63;;
71303;SDS011;59091;47.446;19.148;2023-01-20T07:03:59;17.58;;;10.43;;
71303;SDS011;59091;47.446;19.148;2023-01-20T07:08:57;22.02;;;11.18;;
71303;SDS011;59091;47.446;19.148;2023-01-20T07:11:23;21.80;;;11.50;;
71303;SDS011;59091;47.446;19.148;2023-01-20T07:13:48;19.63;;;11.55;;
71303;SDS011;59091;47.446;19.148;2023-01-20T07:16:14;20.65;;;11.18;;
71303;SDS011;59091;47.446;19.148;2023-01-20T07:18:40;20.80;;;11.27;;
71303;SDS011;59091;47.446;19.148;2023-01-20T07:21:06;21.10;;;11.82;;
71303;SDS011;59091;47.446;19.148;2023-01-20T07:23:33;20.20;;;10.05;;
71303;SDS011;59091;47.446;19.148;2023-01-20T07:25:59;17.92;;;10.52;;
71303;SDS011;59091;47.446;19.148;2023-01-20T07:28:26;16.73;;;10.35;;
71303;SDS011;59091;47.446;19.148;2023-01-20T07:30:51;18.45;;;10.40;;
71303;SDS011;59091;47.446;19.148;2023-01-20T07:33:17;19.70;;;10.90;;
71303;SDS011;59091;47.446;19.148;2023-01-20T07:35:42;16.95;;;9.93;;
71303;SDS011;59091;47.446;19.148;2023-01-20T07:38:08;17.13;;;10.10;;
71303;SDS011;59091;47.446;19.148;2023-01-20T07:40:33;17.10;;;10.15;;
71303;SDS011;59091;47.446;19.148;2023-01-20T07:42:58;21.50;;;10.32;;
71303;SDS011;59091;47.446;19.148;2023-01-20T07:45:27;18.13;;;10.68;;
71303;SDS011;59091;47.446;19.148;2023-01-20T07:47:54;19.88;;;10.25;;
71303;SDS011;59091;47.446;19.148;2023-01-20T07:50:21;19.95;;;10.68;;
71303;SDS011;59091;47.446;19.148;2023-01-20T07:52:46;19.85;;;11.00;;
71303;SDS011;59091;47.446;19.148;2023-01-20T07:55:12;23.83;;;10.27;;
71303;SDS011;59091;47.446;19.148;2023-01-20T07:57:37;18.45;;;9.88;;
71303;SDS011;59091;47.446;19.148;2023-01-20T08:00:03;18.70;;;10.35;;
71303;SDS011;59091;47.446;19.148;2023-01-20T08:02:29;21.35;;;10.90;;
71303;SDS011;59091;47.446;19.148;2023-01-20T08:04:54;22.77;;;9.65;;
71303;SDS011;59091;47.446;19.148;2023-01-20T08:07:19;18.00;;;10.13;;
71303;SDS011;59091;47.446;19.148;2023-01-20T08:09:45;17.55;;;10.38;;
71303;SDS011;59091;47.446;19.148;2023-01-20T08:12:12;18.58;;;10.70;;
71303;SDS011;59091;47.446;19.148;2023-01-20T08:14:37;16.90;;;10.05;;
71303;SDS011;59091;47.446;19.148;2023-01-20T08:17:03;21.02;;;10.23;;
71303;SDS011;59091;47.446;19.148;2023-01-20T08:19:28;17.83;;;10.70;;
71303;SDS011;59091;47.446;19.148;2023-01-20T08:21:54;18.15;;;10.68;;
71303;SDS011;59091;47.446;19.148;2023-01-20T08:24:19;25.35;;;11.45;;
71303;SDS011;59091;47.446;19.148;2023-01-20T08:26:45;20.10;;;11.32;;
71303;SDS011;59091;47.446;19.148;2023-01-20T08:29:10;20.90;;;11.32;;
71303;SDS011;59091;47.446;19.148;2023-01-20T08:31:36;19.70;;;10.48;;
71303;SDS011;59091;47.446;19.148;2023-01-20T08:34:02;17.48;;;10.00;;
71303;SDS011;59091;47.446;19.148;2023-01-20T08:36:29;20.20;;;10.77;;
71303;SDS011;59091;47.446;19.148;2023-01-20T08:38:57;24.38;;;10.48;;
71303;SDS011;59091;47.446;19.148;2023-01-20T08:41:27;20.60;;;10.85;;
71303;SDS011;59091;47.446;19.148;2023-01-20T08:43:54;23.50;;;11.10;;
71303;SDS011;59091;47.446;19.148;2023-01-20T08:46:21;21.15;;;10.68;;
71303;SDS011;59091;47.446;19.148;2023-01-20T08:48:47;18.70;;;10.25;;
71303;SDS011;59091;47.446;19.148;2023-01-20T08:51:18;22.23;;;11.02;;
71303;SDS011;59091;47.446;19.148;2023-01-20T08:53:46;20.20;;;10.18;;
71303;SDS011;59091;47.446;19.148;2023-01-20T08:56:12;21.23;;;10.65;;
71303;SDS011;59091;47.446;19.148;2023-01-20T08:58:38;17.88;;;9.95;;
71303;SDS011;59091;47.446;19.148;2023-01-20T09:01:08;22.70;;;10.48;;
71303;SDS011;59091;47.446;19.148;2023-01-20T09:03:38;18.70;;;10.35;;
71303;SDS011;59091;47.446;19.148;2023-01-20T09:06:04;19.23;;;10.40;;
71303;SDS011;59091;47.446;19.148;2023-01-20T09:08:30;18.92;;;10.55;;
71303;SDS011;59091;47.446;19.148;2023-01-20T09:11:09;26.98;;;10.93;;
71303;SDS011;59091;47.446;19.148;2023-01-20T09:13:37;22.13;;;10.77;;
71303;SDS011;59091;47.446;19.148;2023-01-20T09:16:02;19.98;;;10.73;;
71303;SDS011;59091;47.446;19.148;2023-01-20T09:18:31;20.35;;;11.15;;
71303;SDS011;59091;47.446;19.148;2023-01-20T09:20:58;21.63;;;12.00;;
71303;SDS011;59091;47.446;19.148;2023-01-20T09:23:26;21.80;;;11.07;;
71303;SDS011;59091;47.446;19.148;2023-01-20T09:25:52;20.92;;;11.77;;
71303;SDS011;59091;47.446;19.148;2023-01-20T09:28:18;24.67;;;12.13;;
71303;SDS011;59091;47.446;19.148;2023-01-20T09:30:45;24.05;;;11.52;;
71303;SDS011;59091;47.446;19.148;2023-01-20T09:33:32;22.92;;;11.90;;
71303;SDS011;59091;47.446;19.148;2023-01-20T09:36:00;24.13;;;11.45;;
71303;SDS011;59091;47.446;19.148;2023-01-20T09:38:26;21.25;;;11.18;;
71303;SDS011;59091;47.446;19.148;2023-01-20T09:50:06;22.52;;;12.20;;
71303;SDS011;59091;47.446;19.148;2023-01-20T09:56:17;27.60;;;12.77;;
71303;SDS011;59091;47.446;19.148;2023-01-20T10:01:29;23.88;;;12.48;;
71303;SDS011;59091;47.446;19.148;2023-01-20T10:06:33;22.98;;;11.88;;
71303;SDS011;59091;47.446;19.148;2023-01-20T10:11:36;20.60;;;11.48;;
71303;SDS011;59091;47.446;19.148;2023-01-20T10:17:29;19.38;;;11.52;;
71303;SDS011;59091;47.446;19.148;2023-01-20T10:20:09;22.77;;;12.48;;
71303;SDS011;59091;47.446;19.148;2023-01-20T10:22:51;19.60;;;11.60;;
71303;SDS011;59091;47.446;19.148;2023-01-20T10:27:55;16.73;;;10.32;;
71303;SDS011;59091;47.446;19.148;2023-01-20T10:30:29;22.23;;;11.25;;
71303;SDS011;59091;47.446;19.148;2023-01-20T10:33:07;21.05;;;10.75;;
71303;SDS011;59091;47.446;19.148;2023-01-20T10:35:48;19.25;;;10.57;;
71303;SDS011;59091;47.446;19.148;2023-01-20T10:39:01;19.75;;;10.98;;
71303;SDS011;59091;47.446;19.148;2023-01-20T10:43:54;20.83;;;10.95;;
71303;SDS011;59091;47.446;19.148;2023-01-20T10:57:31;19.95;;;10.07;;
71303;SDS011;59091;47.446;19.148;2023-01-20T10:59:59;18.30;;;10.45;;
71303;SDS011;59091;47.446;19.148;2023-01-20T11:02:29;17.25;;;10.80;;
71303;SDS011;59091;47.446;19.148;2023-01-20T11:05:02;16.88;;;10.32;;
71303;SDS011;59091;47.446;19.148;2023-01-20T11:07:38;20.17;;;11.23;;
71303;SDS011;59091;47.446;19.148;2023-01-20T11:10:15;17.65;;;10.60;;
71303;SDS011;59091;47.446;19.148;2023-01-20T11:12:43;16.77;;;9.93;;
71303;SDS011;59091;47.446;19.148;2023-01-20T11:15:19;15.00;;;8.45;;
71303;SDS011;59091;47.446;19.148;2023-01-20T11:18:00;17.33;;;9.65;;
71303;SDS011;59091;47.446;19.148;2023-01-20T11:20:37;12.55;;;7.78;;
71303;SDS011;59091;47.446;19.148;2023-01-20T11:25:56;13.13;;;7.90;;
71303;SDS011;59091;47.446;19.148;2023-01-20T11:28:23;12.10;;;8.13;;
71303;SDS011;59091;47.446;19.148;2023-01-20T11:30:53;11.93;;;7.32;;
71303;SDS011;59091;47.446;19.148;2023-01-20T11:33:24;12.80;;;7.57;;
71303;SDS011;59091;47.446;19.148;2023-01-20T11:36:04;11.05;;;7.38;;
71303;SDS011;59091;47.446;19.148;2023-01-20T11:38:40;15.07;;;7.10;;
71303;SDS011;59091;47.446;19.148;2023-01-20T11:44:04;9.93;;;6.38;;
71303;SDS011;59091;47.446;19.148;2023-01-20T11:46:31;6.60;;;4.90;;
71303;SDS011;59091;47.446;19.148;2023-01-20T11:49:17;13.02;;;6.55;;
71303;SDS011;59091;47.446;19.148;2023-01-20T11:51:53;9.82;;;5.40;;
71303;SDS011;59091;47.446;19.148;2023-01-20T11:54:27;9.93;;;6.03;;
71303;SDS011;59091;47.446;19.148;2023-01-20T11:56:54;7.97;;;5.88;;
71303;SDS011;59091;47.446;19.148;2023-01-20T11:59:33;11.93;;;6.60;;
71303;SDS011;59091;47.446;19.148;2023-01-20T12:07:26;9.65;;;5.70;;
71303;SDS011;59091;47.446;19.148;2023-01-20T12:10:05;11.38;;;6.20;;
71303;SDS011;59091;47.446;19.148;2023-01-20T12:12:39;9.43;;;6.15;;
71303;SDS011;59091;47.446;19.148;2023-01-20T12:15:22;11.95;;;6.60;;
71303;SDS011;59091;47.446;19.148;2023-01-20T12:23:47;11.05;;;6.70;;
71303;SDS011;59091;47.446;19.148;2023-01-20T12:26:22;11.15;;;6.53;;
71303;SDS011;59091;47.446;19.148;2023-01-20T12:31:20;13.45;;;6.60;;
71303;SDS011;59091;47.446;19.148;2023-01-20T12:33:54;10.88;;;6.75;;
71303;SDS011;59091;47.446;19.148;2023-01-20T12:45:01;10.60;;;6.82;;
71303;SDS011;59091;47.446;19.148;2023-01-20T13:06:15;12.90;;;7.38;;
71303;SDS011;59091;47.446;19.148;2023-01-20T13:14:36;11.60;;;7.18;;
71303;SDS011;59091;47.446;19.148;2023-01-20T13:19:46;14.98;;;8.35;;
71303;SDS011;59091;47.446;19.148;2023-01-20T13:22:15;15.15;;;7.68;;
71303;SDS011;59091;47.446;19.148;2023-01-20T13:24:47;13.82;;;8.25;;
71303;SDS011;59091;47.446;19.148;2023-01-20T13:27:16;15.43;;;9.05;;
71303;SDS011;59091;47.446;19.148;2023-01-20T13:29:51;13.93;;;8.25;;
71303;SDS011;59091;47.446;19.148;2023-01-20T13:32:36;18.27;;;8.68;;
71303;SDS011;59091;47.446;19.148;2023-01-20T13:35:48;13.32;;;8.05;;
71303;SDS011;59091;47.446;19.148;2023-01-20T13:38:21;19.15;;;9.45;;
71303;SDS011;59091;47.446;19.148;2023-01-20T13:40:50;20.77;;;8.75;;
71303;SDS011;59091;47.446;19.148;2023-01-20T13:48:26;15.02;;;8.07;;
71303;SDS011;59091;47.446;19.148;2023-01-20T13:50:52;13.50;;;8.52;;
71303;SDS011;59091;47.446;19.148;2023-01-20T13:58:12;18.90;;;10.50;;
71303;SDS011;59091;47.446;19.148;2023-01-20T14:00:38;16.90;;;10.00;;
71303;SDS011;59091;47.446;19.148;2023-01-20T14:03:19;13.23;;;8.20;;
71303;SDS011;59091;47.446;19.148;2023-01-20T14:06:04;20.38;;;11.10;;
71303;SDS011;59091;47.446;19.148;2023-01-20T14:11:13;19.08;;;10.77;;
71303;SDS011;59091;47.446;19.148;2023-01-20T14:13:54;23.73;;;12.20;;
71303;SDS011;59091;47.446;19.148;2023-01-20T14:19:04;19.58;;;11.20;;
71303;SDS011;59091;47.446;19.148;2023-01-20T14:21:59;24.65;;;13.20;;
71303;SDS011;59091;47.446;19.148;2023-01-20T14:29:41;23.10;;;13.38;;
71303;SDS011;59091;47.446;19.148;2023-01-20T14:32:17;25.23;;;12.93;;
71303;SDS011;59091;47.446;19.148;2023-01-20T14:34:54;24.80;;;13.33;;
71303;SDS011;59091;47.446;19.148;2023-01-20T14:37:27;25.58;;;13.27;;
71303;SDS011;59091;47.446;19.148;2023-01-20T14:39:55;26.55;;;13.85;;
71303;SDS011;59091;47.446;19.148;2023-01-20T14:42:24;30.15;;;15.65;;
71303;SDS011;59091;47.446;19.148;2023-01-20T14:44:52;26.60;;;13.52;;
71303;SDS011;59091;47.446;19.148;2023-01-20T14:47:19;28.17;;;15.02;;
71303;SDS011;59091;47.446;19.148;2023-01-20T14:49:47;26.27;;;14.70;;
71303;SDS011;59091;47.446;19.148;2023-01-20T14:52:20;29.60;;;14.55;;
71303;SDS011;59091;47.446;19.148;2023-01-20T14:54:48;25.30;;;14.63;;
71303;SDS011;59091;47.446;19.148;2023-01-20T14:59:45;26.60;;;14.82;;
71303;SDS011;59091;47.446;19.148;2023-01-20T15:02:17;27.73;;;14.05;;
71303;SDS011;59091;47.446;19.148;2023-01-20T15:04:51;26.08;;;14.10;;
71303;SDS011;59091;47.446;19.148;2023-01-20T15:07:17;28.35;;;15.60;;
71303;SDS011;59091;47.446;19.148;2023-01-20T15:10:17;29.75;;;15.68;;
71303;SDS011;59091;47.446;19.148;2023-01-20T15:12:39;29.83;;;15.80;;
71303;SDS011;59091;47.446;19.148;2023-01-20T15:15:27;27.92;;;15.50;;
71303;SDS011;59091;47.446;19.148;2023-01-20T15:20:46;29.33;;;16.38;;
71303;SDS011;59091;47.446;19.148;2023-01-20T15:25:51;27.70;;;13.95;;
71303;SDS011;59091;47.446;19.148;2023-01-20T15:28:21;31.10;;;14.93;;
71303;SDS011;59091;47.446;19.148;2023-01-20T15:30:50;26.40;;;14.43;;
71303;SDS011;59091;47.446;19.148;2023-01-20T15:33:17;27.27;;;14.43;;
71303;SDS011;59091;47.446;19.148;2023-01-20T15:35:44;25.17;;;14.15;;
71303;SDS011;59091;47.446;19.148;2023-01-20T15:38:10;31.23;;;15.45;;
71303;SDS011;59091;47.446;19.148;2023-01-20T15:40:36;22.08;;;12.93;;
71303;SDS011;59091;47.446;19.148;2023-01-20T15:43:05;24.77;;;13.90;;
71303;SDS011;59091;47.446;19.148;2023-01-20T15:45:38;24.45;;;13.40;;
71303;SDS011;59091;47.446;19.148;2023-01-20T15:48:06;31.02;;;13.52;;
71303;SDS011;59091;47.446;19.148;2023-01-20T15:50:37;26.75;;;14.07;;
71303;SDS011;59091;47.446;19.148;2023-01-20T15:53:02;23.30;;;12.77;;
71303;SDS011;59091;47.446;19.148;2023-01-20T15:55:30;24.90;;;13.43;;
71303;SDS011;59091;47.446;19.148;2023-01-20T15:57:55;28.55;;;13.82;;
71303;SDS011;59091;47.446;19.148;2023-01-20T16:00:21;23.75;;;12.95;;
71303;SDS011;59091;47.446;19.148;2023-01-20T16:02:48;20.63;;;11.88;;
71303;SDS011;59091;47.446;19.148;2023-01-20T16:05:13;23.27;;;12.90;;
71303;SDS011;59091;47.446;19.148;2023-01-20T16:07:39;25.17;;;13.25;;
71303;SDS011;59091;47.446;19.148;2023-01-20T16:10:05;25.40;;;13.82;;
71303;SDS011;59091;47.446;19.148;2023-01-20T16:12:31;24.30;;;13.05;;
71303;SDS011;59091;47.446;19.148;2023-01-20T16:14:57;24.88;;;13.52;;
71303;SDS011;59091;47.446;19.148;2023-01-20T16:17:22;21.73;;;12.07;;
71303;SDS011;59091;47.446;19.148;2023-01-20T16:19:53;24.38;;;13.07;;
71303;SDS011;59091;47.446;19.148;2023-01-20T16:22:19;25.55;;;12.85;;
71303;SDS011;59091;47.446;19.148;2023-01-20T16:24:44;24.50;;;12.27;;
71303;SDS011;59091;47.446;19.148;2023-01-20T16:27:16;26.98;;;13.02;;
71303;SDS011;59091;47.446;19.148;2023-01-20T16:29:43;27.38;;;15.52;;
71303;SDS011;59091;47.446;19.148;2023-01-20T16:32:09;27.80;;;14.55;;
71303;SDS011;59091;47.446;19.148;2023-01-20T16:34:35;32.50;;;14.73;;
71303;SDS011;59091;47.446;19.148;2023-01-20T16:37:01;23.58;;;13.02;;
71303;SDS011;59091;47.446;19.148;2023-01-20T16:39:26;26.85;;;14.00;;
71303;SDS011;59091;47.446;19.148;2023-01-20T16:41:52;28.83;;;14.20;;
71303;SDS011;59091;47.446;19.148;2023-01-20T16:44:17;37.83;;;17.92;;
71303;SDS011;59091;47.446;19.148;2023-01-20T16:46:44;39.40;;;20.55;;
71303;SDS011;59091;47.446;19.148;2023-01-20T16:49:11;39.45;;;21.25;;
71303;SDS011;59091;47.446;19.148;2023-01-20T16:51:36;38.53;;;19.58;;
71303;SDS011;59091;47.446;19.148;2023-01-20T16:54:01;30.33;;;17.02;;
71303;SDS011;59091;47.446;19.148;2023-01-20T16:56:28;25.17;;;14.18;;
71303;SDS011;59091;47.446;19.148;2023-01-20T16:58:56;25.45;;;15.43;;
71303;SDS011;59091;47.446;19.148;2023-01-20T17:01:23;25.88;;;15.27;;
71303;SDS011;59091;47.446;19.148;2023-01-20T17:03:53;34.58;;;15.57;;